Time,TemperatureF,DewpointF,PressureIn,WindDirection,WindDirectionDegrees,WindSpeedMPH,WindSpeedGustMPH,Humidity,HourlyPrecipIn,Conditions,Clouds,dailyrainin,SolarRadiationWatts/m^2,SoftwareType,DateUTC
2013-01-22 00:02:00,38.0,-2.0,-100.00,ENE,72,2.0,9.0,18,0.00,,,0.00,0.000000,,2013-01-22 08:02:00,
2013-01-22 00:11:00,38.0,-2.0,-100.00,ENE,72,2.0,9.0,18,0.00,,,0.00,0.000000,,2013-01-22 08:11:00,
2013-01-22 00:22:00,38.0,-2.0,-100.00,ENE,72,2.0,9.0,18,0.00,,,0.00,0.000000,,2013-01-22 08:22:00,
2013-01-22 00:43:00,40.0,-3.0,-100.00,ENE,67,4.0,12.0,16,0.00,,,0.00,0.000000,,2013-01-22 08:43:00,
2013-01-22 00:52:00,40.0,-3.0,-100.00,ENE,67,4.0,12.0,16,0.00,,,0.00,0.000000,,2013-01-22 08:52:00,
2013-01-22 01:02:00,40.0,-3.0,-100.00,ENE,67,4.0,12.0,16,0.00,,,0.00,0.000000,,2013-01-22 09:02:00,
2013-01-22 01:11:00,40.0,-3.0,-100.00,ENE,67,4.0,12.0,16,0.00,,,0.00,0.000000,,2013-01-22 09:11:00,
2013-01-22 01:22:00,40.0,-3.0,-100.00,ENE,67,4.0,12.0,16,0.00,,,0.00,0.000000,,2013-01-22 09:22:00,
2013-01-22 01:43:00,43.0,-1.0,-100.00,ENE,61,8.0,13.0,15,0.00,,,0.00,0.000000,,2013-01-22 09:43:00,
2013-01-22 01:52:00,43.0,-1.0,-100.00,ENE,61,8.0,13.0,15,0.00,,,0.00,0.000000,,2013-01-22 09:52:00,
2013-01-22 02:02:00,43.0,-1.0,-100.00,ENE,61,8.0,13.0,15,0.00,,,0.00,0.000000,,2013-01-22 10:02:00,
2013-01-22 02:11:00,43.0,-1.0,-100.00,ENE,61,8.0,13.0,15,0.00,,,0.00,0.000000,,2013-01-22 10:11:00,
2013-01-22 02:22:00,43.0,-1.0,-100.00,ENE,61,8.0,13.0,15,0.00,,,0.00,0.000000,,2013-01-22 10:22:00,
2013-01-22 02:42:00,44.0,-1.0,-100.00,ENE,62,7.0,14.0,15,0.00,,,-99.99,0.000000,,2013-01-22 10:42:00,
2013-01-22 02:52:00,44.0,-1.0,-100.00,ENE,62,7.0,14.0,15,0.00,,,-99.99,0.000000,,2013-01-22 10:52:00,
2013-01-22 03:02:00,44.0,-1.0,-100.00,ENE,62,7.0,14.0,15,0.00,,,-99.99,0.000000,,2013-01-22 11:02:00,
2013-01-22 03:12:00,44.0,-1.0,-100.00,ENE,62,7.0,14.0,15,0.00,,,-99.99,0.000000,,2013-01-22 11:12:00,
2013-01-22 03:22:00,44.0,-1.0,-100.00,ENE,62,7.0,14.0,15,0.00,,,-99.99,0.000000,,2013-01-22 11:22:00,
2013-01-22 03:43:00,42.0,-2.0,-100.00,NE,56,5.0,13.0,15,0.00,,,0.00,0.000000,,2013-01-22 11:43:00,
2013-01-22 03:53:00,42.0,-2.0,-100.00,NE,56,5.0,13.0,15,0.00,,,0.00,0.000000,,2013-01-22 11:53:00,
2013-01-22 04:03:00,42.0,-2.0,-100.00,NE,56,5.0,13.0,15,0.00,,,0.00,0.000000,,2013-01-22 12:03:00,
2013-01-22 04:12:00,42.0,-2.0,-100.00,NE,56,5.0,13.0,15,0.00,,,0.00,0.000000,,2013-01-22 12:12:00,
2013-01-22 04:22:00,42.0,-2.0,-100.00,NE,56,5.0,13.0,15,0.00,,,0.00,0.000000,,2013-01-22 12:22:00,
2013-01-22 04:43:00,43.0,-1.0,-100.00,ENE,61,6.0,12.0,15,0.00,,,0.00,0.000000,,2013-01-22 12:43:00,
2013-01-22 04:53:00,43.0,-1.0,-100.00,ENE,61,6.0,12.0,15,0.00,,,0.00,0.000000,,2013-01-22 12:53:00,
2013-01-22 05:03:00,43.0,-1.0,-100.00,ENE,61,6.0,12.0,15,0.00,,,0.00,0.000000,,2013-01-22 13:03:00,
2013-01-22 05:13:00,43.0,-1.0,-100.00,ENE,61,6.0,12.0,15,0.00,,,0.00,0.000000,,2013-01-22 13:13:00,
2013-01-22 05:22:00,43.0,-1.0,-100.00,ENE,61,6.0,12.0,15,0.00,,,0.00,0.000000,,2013-01-22 13:22:00,
2013-01-22 05:43:00,43.0,0.0,-100.00,ENE,62,6.0,11.0,16,0.00,,,0.00,0.000000,,2013-01-22 13:43:00,
2013-01-22 05:53:00,43.0,0.0,-100.00,ENE,62,6.0,11.0,16,0.00,,,0.00,0.000000,,2013-01-22 13:53:00,
2013-01-22 06:02:00,43.0,0.0,-100.00,ENE,62,6.0,11.0,16,0.00,,,0.00,0.000000,,2013-01-22 14:02:00,
2013-01-22 06:12:00,43.0,0.0,-100.00,ENE,62,6.0,11.0,16,0.00,,,0.00,0.000000,,2013-01-22 14:12:00,
2013-01-22 06:22:00,43.0,0.0,-100.00,ENE,62,6.0,11.0,16,0.00,,,0.00,0.000000,,2013-01-22 14:22:00,
2013-01-22 06:44:00,39.0,-2.0,-100.00,ENE,66,4.0,11.0,17,0.00,,,0.00,0.000000,,2013-01-22 14:44:00,
2013-01-22 06:53:00,39.0,-2.0,-100.00,ENE,66,4.0,11.0,17,0.00,,,0.00,0.000000,,2013-01-22 14:53:00,
2013-01-22 07:03:00,39.0,-2.0,-100.00,ENE,66,4.0,11.0,17,0.00,,,0.00,0.000000,,2013-01-22 15:03:00,
2013-01-22 07:12:00,39.0,-2.0,-100.00,ENE,66,4.0,11.0,17,0.00,,,0.00,0.000000,,2013-01-22 15:12:00,
2013-01-22 07:22:00,39.0,-2.0,-100.00,ENE,66,4.0,11.0,17,0.00,,,0.00,0.000000,,2013-01-22 15:22:00,
2013-01-22 07:44:00,39.0,1.0,-100.00,ENE,62,4.0,11.0,20,0.00,,,0.00,6.000000,,2013-01-22 15:44:00,
2013-01-22 07:53:00,39.0,1.0,-100.00,ENE,62,4.0,11.0,20,0.00,,,0.00,6.000000,,2013-01-22 15:53:00,
2013-01-22 08:03:00,39.0,1.0,-100.00,ENE,62,4.0,11.0,20,0.00,,,0.00,6.000000,,2013-01-22 16:03:00,
2013-01-22 08:13:00,39.0,1.0,-100.00,ENE,62,4.0,11.0,20,0.00,,,0.00,6.000000,,2013-01-22 16:13:00,
2013-01-22 08:22:00,39.0,1.0,-100.00,ENE,62,4.0,11.0,20,0.00,,,0.00,6.000000,,2013-01-22 16:22:00,
2013-01-22 08:43:00,48.0,1.0,-100.00,East,85,2.0,12.0,14,-99.99,,,0.00,62.000000,,2013-01-22 16:43:00,
2013-01-22 08:54:00,48.0,1.0,-100.00,East,85,2.0,12.0,14,-99.99,,,0.00,62.000000,,2013-01-22 16:54:00,
2013-01-22 09:03:00,48.0,1.0,-100.00,East,85,2.0,12.0,14,-99.99,,,0.00,62.000000,,2013-01-22 17:03:00,
2013-01-22 09:12:00,48.0,1.0,-100.00,East,85,2.0,12.0,14,-99.99,,,0.00,62.000000,,2013-01-22 17:12:00,
2013-01-22 09:22:00,48.0,1.0,-100.00,East,85,2.0,12.0,14,-99.99,,,0.00,62.000000,,2013-01-22 17:22:00,
2013-01-22 09:44:00,57.0,5.0,-100.00,East,98,2.0,9.0,12,0.00,,,0.00,256.000000,,2013-01-22 17:44:00,
2013-01-22 09:53:00,57.0,5.0,-100.00,East,98,2.0,9.0,12,0.00,,,0.00,256.000000,,2013-01-22 17:53:00,
2013-01-22 10:03:00,57.0,5.0,-100.00,East,98,2.0,9.0,12,0.00,,,0.00,256.000000,,2013-01-22 18:03:00,
2013-01-22 10:12:00,57.0,5.0,-100.00,East,98,2.0,9.0,12,0.00,,,0.00,256.000000,,2013-01-22 18:12:00,
2013-01-22 10:22:00,57.0,5.0,-100.00,East,98,2.0,9.0,12,0.00,,,0.00,256.000000,,2013-01-22 18:22:00,
2013-01-22 10:43:00,61.0,4.0,-100.00,East,82,3.0,7.0,10,0.00,,,0.00,615.000000,,2013-01-22 18:43:00,
2013-01-22 10:53:00,61.0,4.0,-100.00,East,82,3.0,7.0,10,0.00,,,0.00,615.000000,,2013-01-22 18:53:00,
2013-01-22 11:03:00,61.0,4.0,-100.00,East,82,3.0,7.0,10,0.00,,,0.00,615.000000,,2013-01-22 19:03:00,
2013-01-22 11:13:00,61.0,4.0,-100.00,East,82,3.0,7.0,10,0.00,,,0.00,615.000000,,2013-01-22 19:13:00,
2013-01-22 11:22:00,61.0,4.0,-100.00,East,82,3.0,7.0,10,0.00,,,0.00,615.000000,,2013-01-22 19:22:00,
2013-01-22 11:43:00,63.0,6.0,-100.00,ESE,105,3.0,10.0,10,0.00,,,0.00,730.000000,,2013-01-22 19:43:00,
2013-01-22 11:54:00,63.0,6.0,-100.00,ESE,105,3.0,10.0,10,0.00,,,0.00,730.000000,,2013-01-22 19:54:00,
2013-01-22 12:03:00,63.0,6.0,-100.00,ESE,105,3.0,10.0,10,0.00,,,0.00,730.000000,,2013-01-22 20:03:00,
2013-01-22 12:12:00,63.0,6.0,-100.00,ESE,105,3.0,10.0,10,0.00,,,0.00,730.000000,,2013-01-22 20:12:00,
2013-01-22 12:22:00,63.0,6.0,-100.00,ESE,105,3.0,10.0,10,0.00,,,0.00,730.000000,,2013-01-22 20:22:00,
2013-01-22 12:43:00,63.0,13.0,-100.00,ESE,109,3.0,11.0,14,0.00,,,0.00,759.000000,,2013-01-22 20:43:00,
2013-01-22 12:53:00,63.0,13.0,-100.00,ESE,109,3.0,11.0,14,0.00,,,0.00,759.000000,,2013-01-22 20:53:00,
2013-01-22 13:03:00,63.0,13.0,-100.00,ESE,109,3.0,11.0,14,0.00,,,0.00,759.000000,,2013-01-22 21:03:00,
2013-01-22 13:12:00,63.0,13.0,-100.00,ESE,109,3.0,11.0,14,0.00,,,0.00,759.000000,,2013-01-22 21:12:00,
2013-01-22 13:22:00,63.0,13.0,-100.00,ESE,109,3.0,11.0,14,0.00,,,0.00,759.000000,,2013-01-22 21:22:00,
2013-01-22 13:43:00,61.0,13.0,-100.00,East,92,2.0,10.0,15,0.00,,,0.00,623.000000,,2013-01-22 21:43:00,
2013-01-22 13:53:00,61.0,13.0,-100.00,East,92,2.0,10.0,15,0.00,,,0.00,623.000000,,2013-01-22 21:53:00,
2013-01-22 14:02:00,61.0,13.0,-100.00,East,92,2.0,10.0,15,0.00,,,0.00,623.000000,,2013-01-22 22:02:00,
2013-01-22 14:12:00,61.0,13.0,-100.00,East,92,2.0,10.0,15,0.00,,,0.00,623.000000,,2013-01-22 22:12:00,
2013-01-22 14:22:00,61.0,13.0,-100.00,East,92,2.0,10.0,15,0.00,,,0.00,623.000000,,2013-01-22 22:22:00,
2013-01-22 14:43:00,59.0,16.0,-100.00,WNW,302,0.0,10.0,18,0.00,,,0.00,299.000000,,2013-01-22 22:43:00,
2013-01-22 14:53:00,59.0,16.0,-100.00,WNW,302,0.0,10.0,18,0.00,,,0.00,299.000000,,2013-01-22 22:53:00,
2013-01-22 15:02:00,59.0,16.0,-100.00,WNW,302,0.0,10.0,18,0.00,,,0.00,299.000000,,2013-01-22 23:02:00,
2013-01-22 15:12:00,59.0,16.0,-100.00,WNW,302,0.0,10.0,18,0.00,,,0.00,299.000000,,2013-01-22 23:12:00,
2013-01-22 15:22:00,59.0,16.0,-100.00,WNW,302,0.0,10.0,18,0.00,,,0.00,299.000000,,2013-01-22 23:22:00,
2013-01-22 15:43:00,65.0,22.0,-100.00,South,182,3.0,8.0,19,0.00,,,0.00,498.000000,,2013-01-22 23:43:00,
2013-01-22 15:53:00,65.0,22.0,-100.00,South,182,3.0,8.0,19,0.00,,,0.00,498.000000,,2013-01-22 23:53:00,
2013-01-22 16:03:00,65.0,22.0,-100.00,South,182,3.0,8.0,19,0.00,,,0.00,498.000000,,2013-01-23 00:03:00,
2013-01-22 16:12:00,65.0,22.0,-100.00,South,182,3.0,8.0,19,0.00,,,0.00,498.000000,,2013-01-23 00:12:00,
2013-01-22 16:22:00,65.0,22.0,-100.00,South,182,3.0,8.0,19,0.00,,,0.00,498.000000,,2013-01-23 00:22:00,
2013-01-22 16:43:00,57.0,19.0,-100.00,WSW,237,0.0,9.0,22,0.00,,,0.00,194.000000,,2013-01-23 00:43:00,
2013-01-22 16:52:00,57.0,19.0,-100.00,WSW,237,0.0,9.0,22,0.00,,,0.00,194.000000,,2013-01-23 00:52:00,
2013-01-22 17:02:00,57.0,19.0,-100.00,WSW,237,0.0,9.0,22,0.00,,,0.00,194.000000,,2013-01-23 01:02:00,
2013-01-22 17:12:00,57.0,19.0,-100.00,WSW,237,0.0,9.0,22,0.00,,,0.00,194.000000,,2013-01-23 01:12:00,
2013-01-22 17:22:00,57.0,19.0,-100.00,WSW,237,0.0,9.0,22,0.00,,,0.00,194.000000,,2013-01-23 01:22:00,
2013-01-22 17:43:00,49.0,16.0,-100.00,South,175,0.0,6.0,27,0.00,,,0.00,26.000000,,2013-01-23 01:43:00,
2013-01-22 17:53:00,49.0,16.0,-100.00,South,175,0.0,6.0,27,0.00,,,0.00,26.000000,,2013-01-23 01:53:00,
2013-01-22 18:03:00,49.0,16.0,-100.00,South,175,0.0,6.0,27,0.00,,,0.00,26.000000,,2013-01-23 02:03:00,
2013-01-22 18:12:00,49.0,16.0,-100.00,South,175,0.0,6.0,27,0.00,,,0.00,26.000000,,2013-01-23 02:12:00,
2013-01-22 18:22:00,49.0,16.0,-100.00,South,175,0.0,6.0,27,0.00,,,0.00,26.000000,,2013-01-23 02:22:00,
2013-01-22 18:43:00,41.0,15.0,-100.00,East,96,0.0,0.0,34,0.00,,,0.00,0.000000,,2013-01-23 02:43:00,
2013-01-22 18:53:00,41.0,15.0,-100.00,East,96,0.0,0.0,34,0.00,,,0.00,0.000000,,2013-01-23 02:53:00,
2013-01-22 19:03:00,41.0,15.0,-100.00,East,96,0.0,0.0,34,0.00,,,0.00,0.000000,,2013-01-23 03:03:00,
2013-01-22 19:12:00,41.0,15.0,-100.00,East,96,0.0,0.0,34,0.00,,,0.00,0.000000,,2013-01-23 03:12:00,
2013-01-22 19:22:00,41.0,15.0,-100.00,East,96,0.0,0.0,34,0.00,,,0.00,0.000000,,2013-01-23 03:22:00,
2013-01-22 19:43:00,48.0,16.0,-100.00,South,177,0.0,6.0,28,0.00,,,0.00,0.000000,,2013-01-23 03:43:00,
2013-01-22 19:53:00,48.0,16.0,-100.00,South,177,0.0,6.0,28,0.00,,,0.00,0.000000,,2013-01-23 03:53:00,
2013-01-22 20:03:00,48.0,16.0,-100.00,South,177,0.0,6.0,28,0.00,,,0.00,0.000000,,2013-01-23 04:03:00,
2013-01-22 20:12:00,48.0,16.0,-100.00,South,177,0.0,6.0,28,0.00,,,0.00,0.000000,,2013-01-23 04:12:00,
2013-01-22 20:22:00,48.0,16.0,-100.00,South,177,0.0,6.0,28,0.00,,,0.00,0.000000,,2013-01-23 04:22:00,
2013-01-22 20:43:00,48.0,20.0,-100.00,SSE,162,0.0,6.0,33,0.00,,,0.00,0.000000,,2013-01-23 04:43:00,
2013-01-22 20:53:00,48.0,20.0,-100.00,SSE,162,0.0,6.0,33,0.00,,,0.00,0.000000,,2013-01-23 04:53:00,
2013-01-22 21:03:00,48.0,20.0,-100.00,SSE,162,0.0,6.0,33,0.00,,,0.00,0.000000,,2013-01-23 05:03:00,
2013-01-22 21:12:00,48.0,20.0,-100.00,SSE,162,0.0,6.0,33,0.00,,,0.00,0.000000,,2013-01-23 05:12:00,
2013-01-22 21:22:00,48.0,20.0,-100.00,SSE,162,0.0,6.0,33,0.00,,,0.00,0.000000,,2013-01-23 05:22:00,
2013-01-22 21:43:00,47.0,25.0,-100.00,SSE,156,0.0,4.0,42,0.00,,,0.00,0.000000,,2013-01-23 05:43:00,
2013-01-22 21:53:00,47.0,25.0,-100.00,SSE,156,0.0,4.0,42,0.00,,,0.00,0.000000,,2013-01-23 05:53:00,
2013-01-22 22:02:00,47.0,25.0,-100.00,SSE,156,0.0,4.0,42,0.00,,,0.00,0.000000,,2013-01-23 06:02:00,
2013-01-22 22:12:00,47.0,25.0,-100.00,SSE,156,0.0,4.0,42,0.00,,,0.00,0.000000,,2013-01-23 06:12:00,
2013-01-22 22:22:00,47.0,25.0,-100.00,SSE,156,0.0,4.0,42,0.00,,,0.00,0.000000,,2013-01-23 06:22:00,
2013-01-22 22:43:00,48.0,26.0,-100.00,SSE,149,0.0,4.0,42,0.00,,,0.00,0.000000,,2013-01-23 06:43:00,
2013-01-22 22:53:00,48.0,26.0,-100.00,SSE,149,0.0,4.0,42,0.00,,,0.00,0.000000,,2013-01-23 06:53:00,
2013-01-22 23:02:00,48.0,26.0,-100.00,SSE,149,0.0,4.0,42,0.00,,,0.00,0.000000,,2013-01-23 07:02:00,
2013-01-22 23:12:00,48.0,26.0,-100.00,SSE,149,0.0,4.0,42,0.00,,,0.00,0.000000,,2013-01-23 07:12:00,
2013-01-22 23:22:00,48.0,26.0,-100.00,SSE,149,0.0,4.0,42,0.00,,,0.00,0.000000,,2013-01-23 07:22:00,
2013-01-22 23:43:00,41.0,23.0,-100.00,East,85,0.0,6.0,48,0.00,,,0.00,0.000000,,2013-01-23 07:43:00,
2013-01-22 23:53:00,41.0,23.0,-100.00,East,85,0.0,6.0,48,0.00,,,0.00,0.000000,,2013-01-23 07:53:00,